Time;durP1;ratioP1;P1;durP2;ratioP2;P2;SDS_P1;SDS_P2;PMS_P1;PMS_P2;Temp;Humidity;BMP_temperature;BMP_pressure;BME280_temperature;BME280_humidity;BME280_pressure;Samples;Min_cycle;Max_cycle;Signal;HPM_P1;HPM_P2
2022/05/04 00:00:27;;;;;;;14.80;7.07;;;;;;;;;;4387955;32;20194;-57
2022/05/04 00:02:52;;;;;;;10.10;6.50;;;;;;;;;;4392662;32;20264;-58
2022/05/04 00:05:18;;;;;;;10.20;6.13;;;;;;;;;;4400694;32;24490;-58
2022/05/04 00:07:45;;;;;;;11.83;5.40;;;;;;;;;;4386340;32;20268;-57
2022/05/04 00:10:11;;;;;;;6.23;4.30;;;;;;;;;;4387446;32;20288;-59
2022/05/04 00:12:36;;;;;;;6.17;3.30;;;;;;;;;;4388269;32;20321;-57
2022/05/04 00:15:03;;;;;;;9.23;3.57;;;;;;;;;;4384643;32;20649;-58
2022/05/04 00:17:28;;;;;;;5.63;4.03;;;;;;;;;;4405259;32;20295;-56
2022/05/04 00:19:54;;;;;;;8.57;4.73;;;;;;;;;;4394492;32;20314;-57
2022/05/04 00:22:21;;;;;;;9.60;5.10;;;;;;;;;;4406364;32;20225;-57
2022/05/04 00:24:47;;;;;;;8.07;5.40;;;;;;;;;;4418335;32;20277;-57
2022/05/04 00:27:15;;;;;;;9.50;5.43;;;;;;;;;;4421009;32;20295;-58
2022/05/04 00:29:44;;;;;;;8.50;5.03;;;;;;;;;;4420644;32;20231;-58
2022/05/04 00:32:11;;;;;;;9.53;5.80;;;;;;;;;;4421006;32;20258;-57
2022/05/04 00:34:37;;;;;;;7.47;5.33;;;;;;;;;;4420640;32;20581;-58
2022/05/04 00:37:02;;;;;;;9.33;6.10;;;;;;;;;;4420782;32;20205;-58
2022/05/04 00:39:28;;;;;;;10.87;5.27;;;;;;;;;;4392311;32;20277;-57
2022/05/04 00:42:04;;;;;;;8.23;5.33;;;;;;;;;;4405453;32;20221;-57
2022/05/04 00:44:30;;;;;;;12.17;5.40;;;;;;;;;;4394482;32;20273;-58
2022/05/04 00:46:55;;;;;;;14.70;5.03;;;;;;;;;;4390009;32;20339;-58
2022/05/04 00:49:21;;;;;;;7.37;4.63;;;;;;;;;;4390149;32;20336;-58
2022/05/04 00:51:47;;;;;;;5.43;4.07;;;;;;;;;;4399136;32;21033;-57
2022/05/04 00:54:12;;;;;;;6.30;4.53;;;;;;;;;;4405280;32;20297;-58
2022/05/04 00:56:38;;;;;;;5.27;4.03;;;;;;;;;;4391227;32;20287;-57
2022/05/04 00:59:03;;;;;;;6.37;4.50;;;;;;;;;;4391575;32;20245;-58
2022/05/04 01:01:30;;;;;;;11.13;5.37;;;;;;;;;;4405014;32;20328;-57
2022/05/04 01:03:57;;;;;;;6.37;3.93;;;;;;;;;;4402015;32;20361;-57
2022/05/04 01:06:24;;;;;;;5.70;4.57;;;;;;;;;;4404865;32;20202;-57
2022/05/04 01:08:51;;;;;;;7.90;5.17;;;;;;;;;;4405572;32;20670;-57
2022/05/04 01:11:18;;;;;;;10.07;4.77;;;;;;;;;;4405451;32;20697;-57
2022/05/04 01:14:00;;;;;;;6.63;4.50;;;;;;;;;;4405449;32;20229;-58
2022/05/04 01:16:27;;;;;;;10.77;6.03;;;;;;;;;;4404983;32;20313;-58
2022/05/04 01:18:52;;;;;;;9.03;6.83;;;;;;;;;;4404884;32;20346;-58
2022/05/04 01:21:18;;;;;;;13.77;7.07;;;;;;;;;;4411117;32;20316;-58
2022/05/04 01:23:43;;;;;;;10.43;6.50;;;;;;;;;;4419073;32;20237;-58
2022/05/04 01:26:09;;;;;;;12.50;7.13;;;;;;;;;;4419866;32;20263;-58
2022/05/04 01:28:34;;;;;;;13.83;7.10;;;;;;;;;;4420378;32;20220;-58
2022/05/04 01:31:00;;;;;;;18.73;7.70;;;;;;;;;;4420057;32;20272;-58
2022/05/04 01:33:25;;;;;;;16.97;9.27;;;;;;;;;;4393536;32;20316;-58
2022/05/04 01:35:50;;;;;;;21.60;9.90;;;;;;;;;;4419973;32;20291;-58
2022/05/04 01:38:16;;;;;;;24.43;10.80;;;;;;;;;;4412711;32;20241;-58
2022/05/04 01:40:41;;;;;;;18.33;9.17;;;;;;;;;;4404505;32;20292;-58
2022/05/04 01:43:07;;;;;;;17.33;8.57;;;;;;;;;;4397743;32;20301;-58
2022/05/04 01:45:33;;;;;;;15.73;8.40;;;;;;;;;;4390881;32;20304;-57
2022/05/04 01:47:58;;;;;;;10.87;6.17;;;;;;;;;;4404693;32;20221;-58
2022/05/04 01:50:24;;;;;;;9.63;4.80;;;;;;;;;;4404595;32;20330;-58
2022/05/04 01:52:49;;;;;;;11.17;4.13;;;;;;;;;;4404348;32;20233;-58
2022/05/04 01:55:15;;;;;;;6.93;4.47;;;;;;;;;;4405046;32;20767;-58
2022/05/04 01:57:40;;;;;;;7.43;4.50;;;;;;;;;;4403215;32;20249;-58
2022/05/04 02:00:07;;;;;;;8.43;4.40;;;;;;;;;;4389583;32;20285;-58
2022/05/04 02:02:34;;;;;;;8.83;4.37;;;;;;;;;;4395693;32;20217;-58
2022/05/04 02:04:59;;;;;;;10.47;4.70;;;;;;;;;;4404324;32;20697;-58
2022/05/04 02:07:25;;;;;;;9.67;5.30;;;;;;;;;;4404605;32;20339;-57
2022/05/04 02:09:51;;;;;;;12.23;5.63;;;;;;;;;;4404591;32;20338;-58
2022/05/04 02:12:16;;;;;;;10.80;5.43;;;;;;;;;;4404514;32;20245;-57
2022/05/04 02:14:42;;;;;;;10.80;5.80;;;;;;;;;;4411006;32;20288;-58
2022/05/04 02:17:07;;;;;;;10.13;6.07;;;;;;;;;;4404249;32;20193;-57
2022/05/04 02:19:33;;;;;;;12.63;7.67;;;;;;;;;;4404124;32;20277;-59
2022/05/04 02:21:58;;;;;;;77.57;41.23;;;;;;;;;;4390242;32;20241;-57
2022/05/04 02:24:24;;;;;;;60.77;36.83;;;;;;;;;;4389972;32;20312;-57
2022/05/04 02:26:49;;;;;;;28.23;17.33;;;;;;;;;;4390431;32;20300;-57
2022/05/04 02:29:15;;;;;;;24.83;15.67;;;;;;;;;;4404343;32;20402;-57
2022/05/04 02:31:40;;;;;;;19.13;12.80;;;;;;;;;;4403757;32;20213;-57
2022/05/04 02:34:05;;;;;;;20.70;13.43;;;;;;;;;;4404417;32;20296;-57
2022/05/04 02:39:29;;;;;;;20.43;11.10;;;;;;;;;;4370988;32;20285;-59
2022/05/04 02:41:55;;;;;;;20.83;10.17;;;;;;;;;;4401039;32;20217;-58
2022/05/04 02:44:20;;;;;;;17.37;8.83;;;;;;;;;;4403918;32;20322;-59
2022/05/04 02:46:48;;;;;;;11.10;6.00;;;;;;;;;;4402700;32;20376;-57
2022/05/04 02:49:14;;;;;;;10.53;6.73;;;;;;;;;;4404100;32;20718;-57
2022/05/04 02:51:39;;;;;;;12.87;9.07;;;;;;;;;;4404053;32;20285;-57
2022/05/04 02:54:04;;;;;;;17.63;12.07;;;;;;;;;;4403980;32;20423;-58
2022/05/04 02:56:30;;;;;;;22.60;11.63;;;;;;;;;;4403470;32;20351;-58
2022/05/04 02:58:55;;;;;;;25.83;13.47;;;;;;;;;;4395089;32;20661;-57
2022/05/04 03:04:06;;;;;;;25.77;12.40;;;;;;;;;;4401676;32;20271;-57
2022/05/04 03:06:37;;;;;;;30.07;11.60;;;;;;;;;;4386947;32;20272;-58
2022/05/04 03:09:03;;;;;;;20.33;10.27;;;;;;;;;;4390135;32;20376;-58
2022/05/04 03:14:13;;;;;;;32.23;13.83;;;;;;;;;;4416257;32;20286;-57
2022/05/04 03:16:41;;;;;;;21.50;11.47;;;;;;;;;;4403356;32;20230;-57
2022/05/04 03:19:07;;;;;;;15.63;9.53;;;;;;;;;;4403456;32;20276;-57
2022/05/04 03:21:34;;;;;;;14.53;9.27;;;;;;;;;;4412463;32;20250;-58
2022/05/04 03:24:01;;;;;;;22.33;10.77;;;;;;;;;;4418218;32;20291;-58
2022/05/04 03:26:27;;;;;;;14.70;8.80;;;;;;;;;;4418234;32;20688;-58
2022/05/04 03:28:53;;;;;;;12.67;7.67;;;;;;;;;;4418836;32;20299;-58
2022/05/04 03:31:19;;;;;;;10.60;7.77;;;;;;;;;;4404513;32;20380;-58
2022/05/04 03:33:44;;;;;;;13.87;7.97;;;;;;;;;;4418585;32;20225;-57
2022/05/04 03:36:10;;;;;;;15.30;9.47;;;;;;;;;;4388074;32;20253;-57
2022/05/04 03:38:36;;;;;;;21.97;9.37;;;;;;;;;;4396997;32;20334;-58
2022/05/04 03:41:02;;;;;;;16.37;9.23;;;;;;;;;;4389170;32;20292;-58
2022/05/04 03:43:27;;;;;;;20.60;10.93;;;;;;;;;;4398153;32;20225;-57
2022/05/04 03:45:54;;;;;;;22.80;11.37;;;;;;;;;;4388190;32;20693;-58
2022/05/04 03:48:20;;;;;;;32.43;16.20;;;;;;;;;;4387677;32;20637;-57
2022/05/04 03:50:46;;;;;;;32.10;15.57;;;;;;;;;;4388103;32;20288;-58
2022/05/04 03:53:15;;;;;;;25.00;12.77;;;;;;;;;;4387760;32;20330;-58
2022/05/04 03:55:40;;;;;;;24.13;12.30;;;;;;;;;;4388022;32;20391;-58
2022/05/04 03:58:06;;;;;;;30.00;12.97;;;;;;;;;;4391506;32;20292;-58
2022/05/04 04:00:31;;;;;;;27.17;14.97;;;;;;;;;;4403146;32;20334;-57
2022/05/04 04:02:57;;;;;;;30.67;15.50;;;;;;;;;;4402878;32;20229;-57
2022/05/04 04:05:23;;;;;;;20.37;11.20;;;;;;;;;;4402864;32;20402;-58
2022/05/04 04:07:49;;;;;;;21.97;11.17;;;;;;;;;;4402856;32;20295;-57
2022/05/04 04:10:15;;;;;;;23.40;10.60;;;;;;;;;;4402997;32;20307;-57
2022/05/04 04:12:40;;;;;;;14.47;8.20;;;;;;;;;;4402913;32;20253;-57
2022/05/04 04:15:06;;;;;;;28.87;11.77;;;;;;;;;;4402905;32;20303;-57
2022/05/04 04:17:31;;;;;;;30.40;10.93;;;;;;;;;;4402946;32;20304;-57
2022/05/04 04:22:41;;;;;;;23.27;11.33;;;;;;;;;;4387823;32;20279;-58
2022/05/04 04:25:07;;;;;;;18.63;7.77;;;;;;;;;;4402710;32;20693;-57
2022/05/04 04:27:34;;;;;;;17.53;9.90;;;;;;;;;;4402676;32;20229;-58
2022/05/04 04:30:00;;;;;;;16.83;9.73;;;;;;;;;;4402474;32;20542;-57
2022/05/04 04:32:27;;;;;;;23.07;10.20;;;;;;;;;;4373744;32;20312;-57
2022/05/04 04:34:52;;;;;;;17.30;9.47;;;;;;;;;;4373938;32;20260;-59
2022/05/04 04:37:18;;;;;;;16.67;9.50;;;;;;;;;;4384201;32;20241;-58
2022/05/04 04:39:43;;;;;;;26.20;10.43;;;;;;;;;;4387459;32;20270;-57
2022/05/04 04:42:12;;;;;;;20.70;10.70;;;;;;;;;;4401075;32;20606;-58
2022/05/04 04:44:38;;;;;;;28.13;13.17;;;;;;;;;;4414496;32;20409;-57
2022/05/04 04:47:03;;;;;;;19.23;9.97;;;;;;;;;;4417398;32;20194;-58
2022/05/04 04:49:29;;;;;;;19.53;10.97;;;;;;;;;;4417744;32;20372;-58
2022/05/04 04:51:54;;;;;;;23.50;11.90;;;;;;;;;;4417316;32;20227;-59
2022/05/04 04:54:20;;;;;;;16.10;9.83;;;;;;;;;;4417599;32;20344;-58
2022/05/04 04:56:45;;;;;;;25.63;10.93;;;;;;;;;;4417651;32;20347;-57
2022/05/04 04:59:10;;;;;;;15.40;9.00;;;;;;;;;;4396327;32;20301;-58
2022/05/04 05:01:36;;;;;;;25.60;11.10;;;;;;;;;;4390043;32;20260;-57
2022/05/04 05:04:01;;;;;;;33.60;14.80;;;;;;;;;;4404443;32;20372;-58
2022/05/04 05:06:27;;;;;;;41.37;17.50;;;;;;;;;;4389458;32;20297;-57
2022/05/04 05:08:53;;;;;;;32.27;16.93;;;;;;;;;;4404950;32;20260;-58
2022/05/04 05:11:19;;;;;;;32.20;16.47;;;;;;;;;;4404483;32;20310;-57
2022/05/04 05:16:28;;;;;;;47.67;19.90;;;;;;;;;;4404373;32;20616;-57
2022/05/04 05:18:54;;;;;;;35.37;17.07;;;;;;;;;;4404755;32;20237;-57
2022/05/04 05:21:19;;;;;;;37.80;15.83;;;;;;;;;;4404214;32;20343;-57
2022/05/04 05:23:45;;;;;;;28.43;13.37;;;;;;;;;;4404322;32;20375;-57
2022/05/04 05:26:10;;;;;;;13.10;9.50;;;;;;;;;;4404154;32;20398;-58
2022/05/04 05:28:36;;;;;;;11.40;6.17;;;;;;;;;;4389338;32;20221;-58
2022/05/04 05:31:02;;;;;;;10.27;6.93;;;;;;;;;;4388793;32;20300;-57
2022/05/04 05:33:28;;;;;;;13.97;6.87;;;;;;;;;;4389075;32;20260;-59
2022/05/04 05:35:53;;;;;;;21.73;9.07;;;;;;;;;;4395561;32;20342;-59
2022/05/04 05:38:20;;;;;;;30.73;12.37;;;;;;;;;;4411641;32;20242;-57
2022/05/04 05:40:47;;;;;;;27.60;13.77;;;;;;;;;;4404121;32;20292;-58
2022/05/04 05:43:12;;;;;;;21.77;11.50;;;;;;;;;;4403984;32;20326;-58
2022/05/04 05:45:38;;;;;;;13.93;8.63;;;;;;;;;;4377270;32;20375;-59
2022/05/04 05:48:04;;;;;;;14.70;9.43;;;;;;;;;;4404358;32;20661;-58
2022/05/04 05:50:29;;;;;;;15.97;10.73;;;;;;;;;;4404188;32;20264;-58
2022/05/04 05:52:55;;;;;;;17.60;11.83;;;;;;;;;;4403756;32;20323;-56
2022/05/04 05:55:20;;;;;;;19.00;12.13;;;;;;;;;;4403426;32;20293;-60
2022/05/04 05:57:46;;;;;;;40.23;21.03;;;;;;;;;;4403194;32;20255;-58
2022/05/04 06:00:13;;;;;;;36.27;20.73;;;;;;;;;;4403235;32;20645;-58
2022/05/04 06:02:38;;;;;;;47.03;25.00;;;;;;;;;;4403895;32;20276;-57
2022/05/04 06:05:04;;;;;;;34.60;22.20;;;;;;;;;;4403957;32;20280;-58
2022/05/04 06:07:30;;;;;;;14.20;9.37;;;;;;;;;;4388820;32;20252;-57
2022/05/04 06:09:55;;;;;;;18.63;9.10;;;;;;;;;;4388476;32;20613;-59
2022/05/04 06:12:21;;;;;;;9.30;6.77;;;;;;;;;;4374307;32;20299;-59
2022/05/04 06:14:46;;;;;;;12.97;6.90;;;;;;;;;;4388063;32;20652;-57
2022/05/04 06:17:12;;;;;;;14.23;5.73;;;;;;;;;;4403463;32;20367;-59
2022/05/04 06:19:38;;;;;;;7.90;5.93;;;;;;;;;;4403296;32;20314;-58
2022/05/04 06:22:04;;;;;;;4.87;4.33;;;;;;;;;;4389312;32;20297;-58
2022/05/04 06:24:29;;;;;;;15.53;4.97;;;;;;;;;;4401513;32;20296;-60
2022/05/04 06:26:54;;;;;;;8.13;5.53;;;;;;;;;;4403434;32;20702;-58
2022/05/04 06:29:20;;;;;;;9.53;5.20;;;;;;;;;;4402782;32;20308;-59
2022/05/04 06:34:30;;;;;;;8.97;5.10;;;;;;;;;;4403219;32;20247;-59
2022/05/04 06:36:55;;;;;;;5.03;4.20;;;;;;;;;;4389849;32;20331;-59
2022/05/04 06:39:21;;;;;;;5.10;3.40;;;;;;;;;;4389573;32;20318;-59
2022/05/04 06:41:49;;;;;;;5.70;3.20;;;;;;;;;;4377121;32;20242;-59
2022/05/04 06:44:14;;;;;;;6.47;4.40;;;;;;;;;;4374107;32;20666;-58
2022/05/04 06:46:41;;;;;;;5.43;4.53;;;;;;;;;;4387616;32;20264;-58
2022/05/04 06:49:09;;;;;;;12.17;6.27;;;;;;;;;;4387704;32;20264;-61
2022/05/04 06:51:35;;;;;;;7.60;5.80;;;;;;;;;;4387315;32;20670;-58
2022/05/04 06:54:00;;;;;;;11.40;4.57;;;;;;;;;;4387758;32;20260;-58
2022/05/04 06:56:26;;;;;;;8.63;4.27;;;;;;;;;;4373689;32;20500;-58
2022/05/04 06:58:51;;;;;;;11.63;4.60;;;;;;;;;;4379282;32;20313;-58
2022/05/04 07:01:16;;;;;;;5.30;4.60;;;;;;;;;;4388171;32;20641;-59
2022/05/04 07:03:42;;;;;;;7.83;3.87;;;;;;;;;;4387637;32;20276;-59
2022/05/04 07:06:07;;;;;;;5.90;4.23;;;;;;;;;;4388363;32;20280;-59
2022/05/04 07:08:33;;;;;;;9.07;3.53;;;;;;;;;;4402549;32;20297;-59
2022/05/04 07:10:59;;;;;;;5.07;4.03;;;;;;;;;;4402295;32;20304;-59
2022/05/04 07:13:25;;;;;;;4.90;3.93;;;;;;;;;;4401821;32;20654;-57
2022/05/04 07:15:50;;;;;;;4.43;3.53;;;;;;;;;;4402353;32;20351;-58
2022/05/04 07:18:16;;;;;;;6.03;3.47;;;;;;;;;;4400567;32;20282;-57
2022/05/04 07:20:41;;;;;;;4.13;3.00;;;;;;;;;;4388007;32;20308;-57
2022/05/04 07:23:07;;;;;;;4.67;3.57;;;;;;;;;;4401606;32;20250;-58
2022/05/04 07:25:32;;;;;;;4.30;3.23;;;;;;;;;;4402594;32;20337;-59
2022/05/04 07:27:59;;;;;;;4.60;3.47;;;;;;;;;;4388680;32;20233;-59
2022/05/04 07:30:24;;;;;;;6.00;3.97;;;;;;;;;;4388355;32;20233;-59
2022/05/04 07:32:50;;;;;;;5.20;3.53;;;;;;;;;;4396833;32;20753;-57
2022/05/04 07:35:17;;;;;;;6.17;4.10;;;;;;;;;;4417420;32;20738;-59
2022/05/04 07:37:43;;;;;;;8.63;3.40;;;;;;;;;;4398588;32;20332;-59
2022/05/04 07:42:52;;;;;;;5.03;2.87;;;;;;;;;;4386752;32;20276;-59
2022/05/04 07:45:18;;;;;;;4.97;3.23;;;;;;;;;;4386999;32;20661;-57
2022/05/04 07:47:43;;;;;;;4.90;3.33;;;;;;;;;;4386879;32;20234;-58
2022/05/04 07:50:14;;;;;;;5.20;3.20;;;;;;;;;;4373069;32;20381;-58
2022/05/04 07:52:41;;;;;;;14.03;5.30;;;;;;;;;;4390698;32;20263;-58
2022/05/04 07:55:08;;;;;;;5.97;3.63;;;;;;;;;;4401820;32;20276;-58
2022/05/04 07:57:33;;;;;;;3.37;2.40;;;;;;;;;;4401153;32;20233;-58
2022/05/04 08:05:32;;;;;;;8.57;4.07;;;;;;;;;;4401590;32;20284;-59
2022/05/04 08:07:58;;;;;;;9.70;4.37;;;;;;;;;;4402169;32;20225;-57
2022/05/04 08:10:24;;;;;;;5.83;4.23;;;;;;;;;;4375653;32;20357;-58
2022/05/04 08:12:49;;;;;;;9.83;3.87;;;;;;;;;;4387983;32;20293;-58
2022/05/04 08:15:15;;;;;;;4.30;3.63;;;;;;;;;;4401099;32;20335;-57
2022/05/04 08:17:40;;;;;;;5.97;4.03;;;;;;;;;;4401851;32;20653;-57
2022/05/04 08:20:06;;;;;;;4.47;3.20;;;;;;;;;;4401694;32;20305;-58
2022/05/04 08:22:32;;;;;;;4.17;3.23;;;;;;;;;;4401609;32;20712;-57
2022/05/04 08:24:57;;;;;;;11.57;3.80;;;;;;;;;;4402159;32;20304;-58
2022/05/04 08:27:23;;;;;;;6.37;3.50;;;;;;;;;;4401457;32;20285;-59
2022/05/04 08:29:48;;;;;;;4.30;3.73;;;;;;;;;;4401326;32;20435;-58
2022/05/04 08:32:14;;;;;;;4.00;3.23;;;;;;;;;;4401615;32;20317;-58
2022/05/04 08:34:39;;;;;;;4.60;3.33;;;;;;;;;;4403313;32;20277;-58
2022/05/04 08:37:05;;;;;;;4.17;3.40;;;;;;;;;;4404980;32;20201;-58
2022/05/04 08:39:31;;;;;;;3.67;2.60;;;;;;;;;;4404428;32;20266;-58
2022/05/04 08:41:56;;;;;;;4.07;2.60;;;;;;;;;;4403801;32;20275;-58
2022/05/04 08:44:22;;;;;;;8.57;2.40;;;;;;;;;;4390303;32;20308;-58
2022/05/04 08:46:50;;;;;;;4.43;2.60;;;;;;;;;;4404079;32;20223;-58
2022/05/04 08:49:19;;;;;;;4.70;2.73;;;;;;;;;;4404394;32;20225;-58
2022/05/04 08:51:45;;;;;;;3.07;2.50;;;;;;;;;;4404247;32;20236;-58
2022/05/04 08:54:11;;;;;;;4.70;2.73;;;;;;;;;;4402819;32;20566;-60
2022/05/04 08:56:38;;;;;;;4.03;2.83;;;;;;;;;;4388825;32;20574;-57
2022/05/04 08:59:05;;;;;;;6.70;2.67;;;;;;;;;;4389093;32;20226;-57
2022/05/04 09:01:32;;;;;;;3.67;2.17;;;;;;;;;;4398102;32;20691;-58
2022/05/04 09:03:59;;;;;;;8.50;3.20;;;;;;;;;;4404204;32;20305;-58
2022/05/04 09:06:29;;;;;;;3.30;2.20;;;;;;;;;;4395119;32;20263;-57
2022/05/04 09:09:03;;;;;;;6.30;2.33;;;;;;;;;;4389051;32;20293;-56
2022/05/04 09:11:29;;;;;;;4.67;2.57;;;;;;;;;;4388999;32;20233;-57
2022/05/04 09:13:55;;;;;;;3.77;2.40;;;;;;;;;;4389126;32;20296;-57
2022/05/04 09:16:28;;;;;;;5.67;2.40;;;;;;;;;;4388873;32;20277;-56
2022/05/04 09:18:54;;;;;;;5.33;1.97;;;;;;;;;;4390017;32;20230;-57
2022/05/04 09:21:21;;;;;;;6.53;2.10;;;;;;;;;;4390671;32;20304;-58
2022/05/04 09:23:52;;;;;;;4.70;2.55;;;;;;;;;;4390491;32;20298;-57
2022/05/04 09:26:19;;;;;;;4.83;2.33;;;;;;;;;;4418993;32;20288;-57
2022/05/04 09:28:49;;;;;;;4.60;2.20;;;;;;;;;;4406336;32;20237;-57
2022/05/04 09:31:14;;;;;;;6.77;2.80;;;;;;;;;;4404293;32;20557;-56
2022/05/04 09:33:40;;;;;;;2.80;2.10;;;;;;;;;;4404345;32;20291;-57
2022/05/04 09:36:06;;;;;;;9.87;3.07;;;;;;;;;;4390430;32;20319;-58
2022/05/04 09:46:52;;;;;;;2.70;2.10;;;;;;;;;;4403756;32;20290;-57
2022/05/04 09:49:21;;;;;;;4.85;3.37;;;;;;;;;;4404183;32;20202;-57
2022/05/04 09:51:51;;;;;;;3.90;2.53;;;;;;;;;;4393619;32;20222;-56
2022/05/04 09:54:18;;;;;;;9.33;2.63;;;;;;;;;;4397491;32;20714;-56
2022/05/04 09:57:04;;;;;;;6.20;2.83;;;;;;;;;;4403389;32;20205;-56
2022/05/04 09:59:31;;;;;;;3.37;2.00;;;;;;;;;;4403059;32;20229;-56
2022/05/04 10:02:03;;;;;;;3.25;2.40;;;;;;;;;;4403176;32;20566;-57
2022/05/04 10:04:32;;;;;;;6.72;2.45;;;;;;;;;;4388897;32;20229;-57
2022/05/04 10:06:58;;;;;;;2.55;1.92;;;;;;;;;;4400372;32;20213;-56
2022/05/04 10:09:23;;;;;;;3.17;2.42;;;;;;;;;;4403617;32;20276;-57
2022/05/04 10:11:59;;;;;;;7.72;2.30;;;;;;;;;;4403626;32;20772;-57
2022/05/04 10:14:29;;;;;;;2.50;2.00;;;;;;;;;;4402754;32;20338;-56
2022/05/04 10:17:04;;;;;;;1.90;1.67;;;;;;;;;;4386559;32;20209;-56
2022/05/04 10:19:45;;;;;;;5.12;2.20;;;;;;;;;;4401946;32;20287;-58
2022/05/04 10:22:14;;;;;;;2.65;1.85;;;;;;;;;;4415652;32;20354;-57
2022/05/04 10:24:42;;;;;;;2.33;2.05;;;;;;;;;;4418396;32;20331;-57
2022/05/04 10:27:17;;;;;;;3.42;2.10;;;;;;;;;;4418110;32;20205;-57
2022/05/04 10:32:43;;;;;;;6.28;2.10;;;;;;;;;;4402522;32;20338;-57
2022/05/04 10:35:11;;;;;;;5.18;2.15;;;;;;;;;;4403492;32;20185;-56
2022/05/04 10:38:13;;;;;;;3.95;2.60;;;;;;;;;;4402858;32;20648;-57
2022/05/04 10:40:55;;;;;;;4.03;1.95;;;;;;;;;;4362774;32;20233;-58
2022/05/04 10:43:47;;;;;;;5.72;1.83;;;;;;;;;;4388714;32;20237;-57
2022/05/04 10:46:18;;;;;;;4.60;2.22;;;;;;;;;;4403018;32;20664;-57
2022/05/04 10:49:02;;;;;;;5.00;1.80;;;;;;;;;;4375407;32;20225;-57
2022/05/04 10:51:30;;;;;;;5.15;1.92;;;;;;;;;;4387534;32;20320;-57
2022/05/04 10:54:12;;;;;;;3.72;2.33;;;;;;;;;;4393947;32;20233;-57
2022/05/04 10:56:46;;;;;;;3.67;2.37;;;;;;;;;;4388446;32;20660;-57
2022/05/04 10:59:24;;;;;;;11.18;2.90;;;;;;;;;;4391871;32;20343;-57
2022/05/04 11:01:49;;;;;;;5.55;2.12;;;;;;;;;;4400886;32;20338;-56
2022/05/04 11:04:23;;;;;;;11.20;2.03;;;;;;;;;;4403787;32;20713;-59
2022/05/04 11:07:00;;;;;;;6.03;2.10;;;;;;;;;;4388700;32;20322;-57
2022/05/04 11:09:32;;;;;;;3.00;2.12;;;;;;;;;;4402591;32;20304;-57
2022/05/04 11:12:03;;;;;;;3.12;2.28;;;;;;;;;;4388281;32;20225;-57
2022/05/04 11:14:29;;;;;;;3.17;2.15;;;;;;;;;;4388875;32;20269;-57
2022/05/04 11:16:57;;;;;;;7.80;2.75;;;;;;;;;;4402181;32;20248;-57
2022/05/04 11:19:25;;;;;;;4.07;2.15;;;;;;;;;;4402478;32;20270;-57
2022/05/04 11:21:50;;;;;;;4.47;1.77;;;;;;;;;;4402665;32;20288;-57
2022/05/04 11:24:16;;;;;;;3.58;2.42;;;;;;;;;;4402141;32;20351;-56
2022/05/04 11:26:46;;;;;;;7.30;2.35;;;;;;;;;;4403008;32;20228;-58
2022/05/04 11:29:13;;;;;;;3.62;2.60;;;;;;;;;;4402916;32;20291;-57
2022/05/04 11:31:56;;;;;;;3.22;2.42;;;;;;;;;;4402242;32;20637;-57
2022/05/04 11:34:31;;;;;;;3.42;2.37;;;;;;;;;;4402709;32;20228;-57
2022/05/04 11:36:58;;;;;;;8.32;2.10;;;;;;;;;;4402511;32;20345;-57
2022/05/04 11:39:26;;;;;;;3.17;2.08;;;;;;;;;;4388711;32;20286;-56
2022/05/04 11:41:56;;;;;;;2.22;1.85;;;;;;;;;;4402123;32;20309;-58
2022/05/04 11:44:23;;;;;;;5.28;2.05;;;;;;;;;;4392343;32;20650;-57
2022/05/04 11:46:56;;;;;;;2.72;1.73;;;;;;;;;;4387320;32;20237;-57
2022/05/04 11:49:24;;;;;;;6.18;1.60;;;;;;;;;;4387550;32;20283;-57
2022/05/04 11:51:51;;;;;;;12.77;2.17;;;;;;;;;;4398339;32;20939;-57
2022/05/04 11:54:17;;;;;;;6.32;1.77;;;;;;;;;;4402535;32;20272;-57
2022/05/04 11:56:42;;;;;;;2.17;1.60;;;;;;;;;;4388576;32;20307;-58
2022/05/04 11:59:08;;;;;;;3.20;1.75;;;;;;;;;;4388536;32;20267;-57
2022/05/04 12:01:35;;;;;;;5.47;2.28;;;;;;;;;;4401991;32;20238;-57
2022/05/04 12:04:02;;;;;;;3.90;2.00;;;;;;;;;;4402334;32;20221;-56
2022/05/04 12:06:29;;;;;;;5.15;2.12;;;;;;;;;;4385828;32;20655;-57
2022/05/04 12:08:55;;;;;;;3.22;1.80;;;;;;;;;;4388950;32;20233;-57
2022/05/04 12:11:23;;;;;;;7.60;2.33;;;;;;;;;;4390059;32;20250;-56
2022/05/04 12:13:49;;;;;;;6.70;2.35;;;;;;;;;;4390402;32;20315;-57
2022/05/04 12:16:15;;;;;;;10.52;2.25;;;;;;;;;;4390039;32;20646;-56
2022/05/04 12:18:40;;;;;;;3.92;2.17;;;;;;;;;;4404163;32;20292;-56
2022/05/04 12:21:07;;;;;;;2.10;1.70;;;;;;;;;;4405326;32;20672;-56
2022/05/04 12:23:34;;;;;;;2.95;1.98;;;;;;;;;;4405009;32;20327;-56
2022/05/04 12:25:59;;;;;;;2.22;1.60;;;;;;;;;;4405172;32;20240;-56
2022/05/04 12:28:25;;;;;;;4.60;2.10;;;;;;;;;;4404849;32;20233;-57
2022/05/04 12:33:37;;;;;;;12.50;4.65;;;;;;;;;;4405092;32;20286;-56
2022/05/04 12:36:07;;;;;;;7.22;3.35;;;;;;;;;;4404997;32;20198;-57
2022/05/04 12:38:34;;;;;;;10.75;2.05;;;;;;;;;;4404801;32;20262;-56
2022/05/04 12:41:01;;;;;;;5.90;2.67;;;;;;;;;;4392419;32;20295;-57
2022/05/04 12:43:38;;;;;;;4.93;2.50;;;;;;;;;;4389691;32;20327;-57
2022/05/04 12:46:08;;;;;;;3.90;2.08;;;;;;;;;;4389883;32;20221;-57
2022/05/04 12:48:36;;;;;;;2.80;1.83;;;;;;;;;;4402989;32;20249;-56
2022/05/04 12:51:01;;;;;;;2.47;1.80;;;;;;;;;;4390910;32;20715;-56
2022/05/04 12:53:27;;;;;;;2.87;1.60;;;;;;;;;;4404681;32;20225;-56
2022/05/04 12:58:38;;;;;;;4.57;1.60;;;;;;;;;;4404426;32;20576;-56
2022/05/04 13:01:04;;;;;;;2.78;2.45;;;;;;;;;;4404300;32;20357;-56
2022/05/04 13:03:31;;;;;;;8.80;2.55;;;;;;;;;;4390496;32;20242;-55
2022/05/04 13:05:56;;;;;;;3.60;2.30;;;;;;;;;;4404692;32;20595;-56
2022/05/04 13:08:22;;;;;;;3.60;2.22;;;;;;;;;;4404496;32;20264;-56
2022/05/04 13:10:48;;;;;;;6.57;2.17;;;;;;;;;;4404862;32;20473;-56
2022/05/04 13:13:16;;;;;;;8.05;1.60;;;;;;;;;;4404578;32;20550;-57
2022/05/04 13:15:42;;;;;;;3.60;1.83;;;;;;;;;;4391053;32;20647;-56
2022/05/04 13:18:08;;;;;;;4.18;2.15;;;;;;;;;;4404388;32;20216;-56
2022/05/04 13:20:34;;;;;;;2.75;2.15;;;;;;;;;;4392310;32;20654;-56
2022/05/04 13:22:59;;;;;;;2.62;1.45;;;;;;;;;;4389591;32;20356;-56
2022/05/04 13:25:25;;;;;;;5.82;1.80;;;;;;;;;;4389684;32;20285;-56
2022/05/04 13:27:50;;;;;;;3.95;2.00;;;;;;;;;;4389079;32;20642;-56
2022/05/04 13:30:16;;;;;;;5.20;2.17;;;;;;;;;;4389328;32;20301;-56
2022/05/04 13:32:41;;;;;;;6.93;1.90;;;;;;;;;;4375798;32;20242;-56
2022/05/04 13:35:07;;;;;;;3.05;1.95;;;;;;;;;;4388631;32;20335;-56
2022/05/04 13:37:32;;;;;;;6.55;2.03;;;;;;;;;;4403132;32;20259;-56
2022/05/04 13:39:58;;;;;;;4.18;2.00;;;;;;;;;;4404780;32;20272;-57
2022/05/04 13:42:23;;;;;;;1.52;1.20;;;;;;;;;;4404316;32;20554;-56
2022/05/04 13:44:49;;;;;;;2.72;1.40;;;;;;;;;;4404548;32;20430;-57
2022/05/04 13:47:14;;;;;;;2.83;1.30;;;;;;;;;;4404386;32;20233;-55
2022/05/04 13:49:40;;;;;;;3.33;1.55;;;;;;;;;;4404645;32;20273;-56
2022/05/04 13:54:49;;;;;;;2.78;2.15;;;;;;;;;;4404346;32;20271;-56
2022/05/04 13:57:16;;;;;;;2.17;1.67;;;;;;;;;;4390366;32;20240;-56
2022/05/04 13:59:41;;;;;;;4.87;1.45;;;;;;;;;;4390510;32;20289;-57
2022/05/04 14:02:08;;;;;;;2.67;1.45;;;;;;;;;;4403984;32;20264;-56
2022/05/04 14:04:33;;;;;;;5.18;1.67;;;;;;;;;;4404468;32;20328;-56
2022/05/04 14:06:58;;;;;;;3.67;1.48;;;;;;;;;;4404104;32;20236;-56
2022/05/04 14:09:24;;;;;;;1.83;1.35;;;;;;;;;;4404780;32;20361;-57
2022/05/04 14:11:50;;;;;;;5.28;1.73;;;;;;;;;;4390171;32;20285;-57
2022/05/04 14:17:00;;;;;;;3.92;1.58;;;;;;;;;;4395017;32;20269;-59
2022/05/04 14:19:25;;;;;;;2.92;1.30;;;;;;;;;;4404320;32;20300;-57
2022/05/04 14:21:52;;;;;;;1.45;1.20;;;;;;;;;;4404512;32;20214;-57
2022/05/04 14:24:18;;;;;;;3.40;1.60;;;;;;;;;;4404135;32;20496;-57
2022/05/04 14:26:44;;;;;;;5.90;1.42;;;;;;;;;;4403904;32;20255;-57
2022/05/04 14:29:09;;;;;;;2.53;1.37;;;;;;;;;;4404653;32;20233;-58
2022/05/04 14:31:35;;;;;;;7.85;1.60;;;;;;;;;;4403552;32;20202;-57
2022/05/04 14:34:00;;;;;;;2.10;1.40;;;;;;;;;;4403916;32;20222;-57
2022/05/04 14:36:26;;;;;;;1.73;1.12;;;;;;;;;;4403989;32;20349;-57
2022/05/04 14:38:51;;;;;;;1.77;1.23;;;;;;;;;;4403775;32;20249;-55
2022/05/04 14:41:17;;;;;;;3.35;1.52;;;;;;;;;;4403598;32;20713;-57
2022/05/04 14:43:42;;;;;;;5.37;1.65;;;;;;;;;;4390562;32;20271;-57
2022/05/04 14:46:08;;;;;;;5.68;1.58;;;;;;;;;;4404441;32;20716;-59
2022/05/04 14:48:33;;;;;;;2.83;1.80;;;;;;;;;;4403632;32;20272;-57
2022/05/04 14:50:59;;;;;;;3.70;1.80;;;;;;;;;;4419050;32;20269;-56
2022/05/04 14:53:24;;;;;;;5.70;1.50;;;;;;;;;;4415226;32;20237;-57
2022/05/04 14:55:53;;;;;;;3.40;2.33;;;;;;;;;;4403615;32;20292;-56
2022/05/04 14:58:18;;;;;;;4.18;2.05;;;;;;;;;;4398534;32;20238;-55
2022/05/04 15:00:43;;;;;;;25.12;5.95;;;;;;;;;;4392435;32;20390;-59
2022/05/04 15:05:53;;;;;;;16.40;5.28;;;;;;;;;;4398463;32;20248;-59
2022/05/04 15:08:19;;;;;;;9.40;3.55;;;;;;;;;;4389166;32;20229;-57
2022/05/04 15:10:44;;;;;;;9.25;2.78;;;;;;;;;;4399222;32;20337;-58
2022/05/04 15:13:10;;;;;;;3.37;1.85;;;;;;;;;;4393389;32;20241;-57
2022/05/04 15:15:35;;;;;;;3.97;1.95;;;;;;;;;;4388942;32;20297;-57
2022/05/04 15:18:02;;;;;;;4.80;2.28;;;;;;;;;;4398472;32;20229;-57
2022/05/04 15:20:28;;;;;;;3.55;2.67;;;;;;;;;;4404107;32;20277;-57
2022/05/04 15:22:54;;;;;;;11.10;3.42;;;;;;;;;;4403725;32;20527;-57